createdAt,value
2022-08-14T00:00:17.008Z,21
2022-08-14T00:01:22.103Z,19.6
2022-08-14T00:02:28.260Z,19.7
2022-08-14T00:03:34.439Z,19.29
2022-08-14T00:04:39.615Z,21
2022-08-14T00:05:46.520Z,19.7
2022-08-14T00:06:51.942Z,20.9
2022-08-14T00:07:58.107Z,21.5
2022-08-14T00:09:04.266Z,20.8
2022-08-14T00:10:10.435Z,19.7
2022-08-14T00:11:16.590Z,19.5
2022-08-14T00:12:22.745Z,21.2
2022-08-14T00:13:28.909Z,19.1
2022-08-14T00:14:35.108Z,21.4
2022-08-14T00:15:41.223Z,20.29
2022-08-14T00:16:47.379Z,20.1
2022-08-14T00:17:53.549Z,20.7
2022-08-14T00:18:58.714Z,19.29
2022-08-14T00:20:04.870Z,20.7
2022-08-14T00:21:11.035Z,19.79
2022-08-14T00:22:17.195Z,18.7
2022-08-14T00:23:23.363Z,18.79
2022-08-14T00:24:29.524Z,20
2022-08-14T00:25:35.677Z,20.1
2022-08-14T00:26:41.885Z,20.9
2022-08-14T00:27:47.992Z,21.3
2022-08-14T00:28:54.191Z,21.1
2022-08-14T00:30:00.327Z,22.3
2022-08-14T00:31:06.501Z,21.9
2022-08-14T00:32:12.667Z,20.6
2022-08-14T00:33:17.836Z,22.5
2022-08-14T00:34:23.998Z,21.4
2022-08-14T00:35:30.154Z,20.6
2022-08-14T00:36:36.314Z,20.7
2022-08-14T00:37:42.479Z,20.7
2022-08-14T00:38:48.664Z,21.6
2022-08-14T00:39:54.822Z,21.5
2022-08-14T00:41:00.995Z,19.9
2022-08-14T00:42:07.150Z,19.79
2022-08-14T00:43:13.313Z,21
2022-08-14T00:44:19.468Z,20.8
2022-08-14T00:45:25.622Z,20.5
2022-08-14T00:46:31.801Z,21.4
2022-08-14T00:47:36.973Z,20.8
2022-08-14T00:48:43.160Z,20.9
2022-08-14T00:49:49.310Z,21.4
2022-08-14T00:50:55.482Z,21.3
2022-08-14T00:52:01.641Z,20.9
2022-08-14T00:53:07.802Z,21.1
2022-08-14T00:54:13.975Z,23.8
2022-08-14T00:55:20.140Z,23.1
2022-08-14T00:56:26.311Z,22.9
2022-08-14T00:57:32.468Z,22.8
2022-08-14T00:58:38.652Z,24
2022-08-14T00:59:44.834Z,22
2022-08-14T01:00:50.979Z,23.5
2022-08-14T01:01:56.153Z,23.6
2022-08-14T01:03:02.320Z,23.8
2022-08-14T01:04:08.518Z,24.9
2022-08-14T01:05:14.660Z,24.2
2022-08-14T01:06:20.840Z,24.7
2022-08-14T01:07:26.995Z,23.3
2022-08-14T01:08:33.184Z,24.1
2022-08-14T01:09:39.348Z,23.9
2022-08-14T01:10:45.512Z,23.3
2022-08-14T01:11:51.694Z,24.3
2022-08-14T01:12:57.863Z,23.5
2022-08-14T01:14:04.098Z,25
2022-08-14T01:15:10.223Z,24.8
2022-08-14T01:16:15.418Z,24.6
2022-08-14T01:17:21.574Z,25.3
2022-08-14T01:18:27.752Z,24.5
2022-08-14T01:19:33.942Z,24.5
2022-08-14T01:20:40.112Z,23.5
2022-08-14T01:21:46.278Z,24.9
2022-08-14T01:22:52.474Z,26.8
2022-08-14T01:23:58.635Z,25.4
2022-08-14T01:25:07.815Z,26.4
2022-08-14T01:26:10.983Z,27.1
2022-08-14T01:27:17.152Z,27
2022-08-14T01:28:23.332Z,27.7
2022-08-14T01:29:29.505Z,27.4
2022-08-14T01:30:34.690Z,27.6
2022-08-14T01:31:40.863Z,27.6
2022-08-14T01:32:47.038Z,27.9
2022-08-14T01:33:53.209Z,29.8
2022-08-14T01:34:59.378Z,30.4
2022-08-14T01:36:05.579Z,28.9
2022-08-14T01:37:11.746Z,26.4
2022-08-14T01:38:17.926Z,27.8
2022-08-14T01:39:24.102Z,26.8
2022-08-14T01:40:30.275Z,26.5
2022-08-14T01:41:36.450Z,27.7
2022-08-14T01:42:42.640Z,27.9
2022-08-14T01:43:48.805Z,26.3
2022-08-14T01:44:53.994Z,26.3
2022-08-14T01:46:00.177Z,27.4
2022-08-14T01:47:06.356Z,25.3
2022-08-14T01:48:12.538Z,25.7
2022-08-14T01:49:18.723Z,24.9
2022-08-14T01:50:24.889Z,24.2
2022-08-14T01:51:31.070Z,25.2
2022-08-14T01:52:37.274Z,25.1
2022-08-14T01:53:43.430Z,24.8
2022-08-14T01:54:49.621Z,25.6
2022-08-14T01:55:55.801Z,24.5
2022-08-14T01:57:01.995Z,25.2
2022-08-14T01:58:08.169Z,24.5
2022-08-14T01:59:13.365Z,25.3
2022-08-14T02:00:19.551Z,26
2022-08-14T02:01:25.733Z,25.8
2022-08-14T02:02:31.917Z,24.8
2022-08-14T02:03:38.094Z,24.8
2022-08-14T02:04:44.279Z,24.4
2022-08-14T02:05:50.484Z,24.7
2022-08-14T02:06:56.653Z,25.2
2022-08-14T02:08:02.826Z,25
2022-08-14T02:09:09.011Z,25.3
2022-08-14T02:10:15.202Z,25.9
2022-08-14T02:11:21.378Z,27.4
2022-08-14T02:12:27.564Z,25.9
2022-08-14T02:13:32.743Z,25.3
2022-08-14T02:14:38.933Z,25.5
2022-08-14T02:15:45.104Z,25.1
2022-08-14T02:16:51.296Z,25.2
2022-08-14T02:17:57.477Z,25.1
2022-08-14T02:19:03.677Z,24.5
2022-08-14T02:20:09.841Z,24.8
2022-08-14T02:21:16.041Z,24.4
2022-08-14T02:22:22.200Z,26.8
2022-08-14T02:23:28.392Z,26
2022-08-14T02:24:34.565Z,26.3
2022-08-14T02:25:40.756Z,26.4
2022-08-14T02:26:46.933Z,29.9
2022-08-14T02:27:52.117Z,29
2022-08-14T02:28:58.289Z,28.8
2022-08-14T02:30:04.476Z,28.5
2022-08-14T02:31:10.668Z,28.5
2022-08-14T02:32:16.836Z,29.1
2022-08-14T02:33:23.023Z,30.5
2022-08-14T02:34:29.197Z,27.9
2022-08-14T02:35:35.378Z,26.8
2022-08-14T02:36:41.558Z,25.1
2022-08-14T02:37:47.751Z,25.1
2022-08-14T02:38:53.932Z,24.6
2022-08-14T02:40:00.113Z,27.3
2022-08-14T02:41:06.288Z,26.5
2022-08-14T02:42:11.503Z,25.7
2022-08-14T02:43:17.672Z,25.6
2022-08-14T02:44:23.862Z,25.9
2022-08-14T02:45:30.038Z,28.4
2022-08-14T02:46:36.204Z,30.7
2022-08-14T02:47:42.375Z,28.4
2022-08-14T02:48:48.559Z,30.4
2022-08-14T02:49:54.746Z,32.09
2022-08-14T02:51:00.922Z,30.9
2022-08-14T02:52:07.102Z,30.1
2022-08-14T02:53:13.285Z,30.8
2022-08-14T02:54:19.466Z,32
2022-08-14T02:55:25.643Z,30.9
2022-08-14T02:56:30.868Z,32.3
2022-08-14T02:57:37.044Z,33.4
2022-08-14T02:58:43.213Z,33.5
2022-08-14T02:59:49.398Z,33.2
2022-08-14T03:00:55.588Z,31.1
2022-08-14T03:02:01.773Z,29.9
2022-08-14T03:03:07.963Z,29.6
2022-08-14T03:04:14.147Z,31
2022-08-14T03:05:20.327Z,30.2
2022-08-14T03:06:26.516Z,32.09
2022-08-14T03:07:32.699Z,32.59
2022-08-14T03:08:38.883Z,35.9
2022-08-14T03:09:45.073Z,34.5
2022-08-14T03:10:50.277Z,34.2
2022-08-14T03:11:56.464Z,33.7
2022-08-14T03:13:02.650Z,34.5
2022-08-14T03:14:08.843Z,33.9
2022-08-14T03:15:15.056Z,35
2022-08-14T03:16:21.220Z,32
2022-08-14T03:17:27.405Z,33.5
2022-08-14T03:18:33.603Z,32.5
2022-08-14T03:19:39.796Z,34.7
2022-08-14T03:20:45.992Z,32.59
2022-08-14T03:21:52.161Z,31.6
2022-08-14T03:22:58.362Z,32.8
2022-08-14T03:24:04.552Z,33.2
2022-08-14T03:25:09.760Z,33
2022-08-14T03:26:15.952Z,31.4
2022-08-14T03:27:22.136Z,32.8
2022-08-14T03:28:28.329Z,32
2022-08-14T03:29:34.525Z,32.4
2022-08-14T03:30:40.714Z,33.09
2022-08-14T03:31:46.900Z,32.2
2022-08-14T03:32:53.088Z,33.4
2022-08-14T03:33:59.285Z,32.9
2022-08-14T03:35:05.460Z,34.5
2022-08-14T03:36:11.651Z,31.4
2022-08-14T03:37:17.850Z,31.9
2022-08-14T03:38:24.034Z,32.5
2022-08-14T03:39:29.230Z,31
2022-08-14T03:40:35.424Z,28.5
2022-08-14T03:41:41.611Z,29.3
2022-08-14T03:42:47.802Z,27.5
2022-08-14T03:43:54.001Z,26.9
2022-08-14T03:45:00.158Z,26.3
2022-08-14T03:46:05.363Z,25.7
2022-08-14T03:47:11.545Z,28.5
2022-08-14T03:48:17.731Z,30
2022-08-14T03:49:23.911Z,30.3
2022-08-14T03:50:30.097Z,29.6
2022-08-14T03:51:36.291Z,29
2022-08-14T03:52:42.476Z,27
2022-08-14T03:53:48.690Z,27.3
2022-08-14T03:54:54.855Z,27.1
2022-08-14T03:56:01.063Z,25.9
2022-08-14T03:57:07.236Z,27.9
2022-08-14T03:58:13.422Z,27.3
2022-08-14T03:59:19.613Z,26.3
2022-08-14T04:00:24.818Z,27.9
2022-08-14T04:01:30.989Z,25.8
2022-08-14T04:02:37.176Z,25.7
2022-08-14T04:03:43.362Z,24.6
2022-08-14T04:04:49.556Z,24.9
2022-08-14T04:05:55.750Z,23.6
2022-08-14T04:07:01.911Z,23.9
2022-08-14T04:08:08.093Z,23.7
2022-08-14T04:09:14.267Z,23.1
2022-08-14T04:10:20.467Z,21.7
2022-08-14T04:11:26.660Z,21.4
2022-08-14T04:12:32.830Z,22
2022-08-14T04:13:38.978Z,20.4
2022-08-14T04:14:44.180Z,25.8
2022-08-14T04:15:50.364Z,27.9
2022-08-14T04:16:56.566Z,26.5
2022-08-14T04:18:02.724Z,27.3
2022-08-14T04:19:08.920Z,27.6
2022-08-14T04:20:15.094Z,28.3
2022-08-14T04:21:21.287Z,26.4
2022-08-14T04:22:27.454Z,27.3
2022-08-14T04:23:33.643Z,26.1
2022-08-14T04:24:39.813Z,25.8
2022-08-14T04:25:46.015Z,26.3
2022-08-14T04:26:52.188Z,26.1
2022-08-14T04:27:58.365Z,25.9
2022-08-14T04:29:03.553Z,25.2
2022-08-14T04:30:09.735Z,23.8
2022-08-14T04:31:15.922Z,22
2022-08-14T04:32:22.109Z,22.9
2022-08-14T04:33:28.298Z,22
2022-08-14T04:34:34.470Z,22.5
2022-08-14T04:35:40.657Z,22.2
2022-08-14T04:36:46.832Z,22.4
2022-08-14T04:37:53.019Z,22.8
2022-08-14T04:38:59.193Z,23.8
2022-08-14T04:40:05.363Z,24.5
2022-08-14T04:41:11.570Z,24.8
2022-08-14T04:42:17.737Z,25
2022-08-14T04:43:22.924Z,24.3
2022-08-14T04:44:29.089Z,23.2
2022-08-14T04:45:35.263Z,25.9
2022-08-14T04:46:41.436Z,24.1
2022-08-14T04:47:47.612Z,23.9
2022-08-14T04:48:53.794Z,25.5
2022-08-14T04:49:59.965Z,24.3
2022-08-14T04:51:06.126Z,25.1
2022-08-14T04:52:12.304Z,24.8
2022-08-14T04:53:18.488Z,23.7
2022-08-14T04:54:24.631Z,24
2022-08-14T04:55:30.819Z,24
2022-08-14T04:56:36.994Z,24.8
2022-08-14T04:57:42.167Z,24.7
2022-08-14T04:58:48.338Z,25.3
2022-08-14T04:59:54.522Z,24.3
2022-08-14T05:01:00.669Z,24.8
2022-08-14T05:02:06.840Z,23.6
2022-08-14T05:03:13.007Z,22.3
2022-08-14T05:04:19.170Z,23.4
2022-08-14T05:05:25.357Z,23.4
2022-08-14T05:06:31.501Z,24.1
2022-08-14T05:07:37.663Z,25
2022-08-14T05:08:43.828Z,24.7
2022-08-14T05:09:50.000Z,26.6
2022-08-14T05:10:56.169Z,25.2
2022-08-14T05:12:01.345Z,24.4
2022-08-14T05:13:07.509Z,25.5
2022-08-14T05:14:13.681Z,24.9
2022-08-14T05:15:19.837Z,25.3
2022-08-14T05:16:25.995Z,25.6
2022-08-14T05:17:32.159Z,24.6
2022-08-14T05:18:38.364Z,26.3
2022-08-14T05:19:44.491Z,25.7
2022-08-14T05:20:50.665Z,25.1
2022-08-14T05:21:56.812Z,25.5
2022-08-14T05:23:02.974Z,25.9
2022-08-14T05:24:09.129Z,25.3
2022-08-14T05:25:15.298Z,25
2022-08-14T05:26:20.476Z,25
2022-08-14T05:27:26.643Z,24.8
2022-08-14T05:28:32.802Z,24.4
2022-08-14T05:29:38.999Z,24.6
2022-08-14T05:30:45.118Z,23.7
2022-08-14T05:31:51.281Z,23.6
2022-08-14T05:32:57.441Z,22.4
2022-08-14T05:34:03.600Z,23.2
2022-08-14T05:35:09.751Z,22.8
2022-08-14T05:36:15.899Z,23.2
2022-08-14T05:37:22.062Z,24.2
2022-08-14T05:38:28.198Z,23.1
2022-08-14T05:39:34.336Z,24.6
2022-08-14T05:40:39.523Z,25.6
2022-08-14T05:41:45.659Z,23.6
2022-08-14T05:42:51.803Z,23.3
2022-08-14T05:43:57.950Z,25.4
2022-08-14T05:45:04.093Z,23.7
2022-08-14T05:46:10.228Z,23.6
2022-08-14T05:47:16.388Z,24.4
2022-08-14T05:48:22.522Z,24.2
2022-08-14T05:49:28.656Z,23.8
2022-08-14T05:50:34.818Z,23.8
2022-08-14T05:51:40.952Z,24.4
2022-08-14T05:52:47.122Z,25.5
2022-08-14T05:53:53.225Z,23.3
2022-08-14T05:54:58.397Z,24.2
2022-08-14T05:56:04.544Z,25
2022-08-14T05:57:10.674Z,22.6
2022-08-14T05:58:16.800Z,23
2022-08-14T05:59:22.932Z,23.9
2022-08-14T06:00:29.059Z,22.9
2022-08-14T06:01:35.191Z,24
2022-08-14T06:02:41.322Z,22.8
2022-08-14T06:03:47.446Z,24.3
2022-08-14T06:04:53.605Z,23
2022-08-14T06:05:59.701Z,23.2
2022-08-14T06:07:05.839Z,23.2
2022-08-14T06:08:11.965Z,24.3
2022-08-14T06:09:18.098Z,23.1
2022-08-14T06:10:24.213Z,25.2
2022-08-14T06:11:30.340Z,24.2
2022-08-14T06:12:36.503Z,25.7
2022-08-14T06:13:42.619Z,23.7
2022-08-14T06:14:48.714Z,25.2
2022-08-14T06:15:54.839Z,25.7
2022-08-14T06:17:00.956Z,24.3
2022-08-14T06:18:07.067Z,25.6
2022-08-14T06:19:13.182Z,27.1
2022-08-14T06:20:19.292Z,25
2022-08-14T06:21:25.409Z,25
2022-08-14T06:22:31.576Z,24.9
2022-08-14T06:23:37.634Z,23.8
2022-08-14T06:24:43.768Z,25.4
2022-08-14T06:25:49.861Z,23.8
2022-08-14T06:26:55.967Z,25.3
2022-08-14T06:28:02.081Z,24.4
2022-08-14T06:29:08.198Z,24.7
2022-08-14T06:30:14.322Z,23.7
2022-08-14T06:31:20.394Z,23.2
2022-08-14T06:32:26.497Z,24.1
2022-08-14T06:33:32.569Z,22.4
2022-08-14T06:34:38.681Z,22.5
2022-08-14T06:35:44.839Z,20.6
2022-08-14T06:36:50.999Z,20.6
2022-08-14T06:37:57.184Z,21.1
2022-08-14T06:39:03.309Z,19.5
2022-08-14T06:40:09.474Z,20.2
2022-08-14T06:41:15.619Z,20.5
2022-08-14T06:42:21.769Z,18.9
2022-08-14T06:43:27.906Z,18.4
2022-08-14T06:44:34.072Z,18.29
2022-08-14T06:45:40.211Z,18.1
2022-08-14T06:46:46.349Z,17.4
2022-08-14T06:47:52.491Z,18.7
2022-08-14T06:48:58.648Z,17
2022-08-14T06:50:04.903Z,18
2022-08-14T06:51:10.188Z,16.7
2022-08-14T06:52:16.325Z,16.2
2022-08-14T06:53:22.470Z,16.7
2022-08-14T06:54:28.565Z,18.1
2022-08-14T06:55:34.684Z,17.6
2022-08-14T06:56:40.817Z,16.7
2022-08-14T06:57:46.927Z,16.4
2022-08-14T06:58:53.064Z,17.1
2022-08-14T06:59:59.140Z,16.9
2022-08-14T07:01:05.259Z,16.4
2022-08-14T07:02:11.388Z,17.1
2022-08-14T07:03:17.478Z,16.29
2022-08-14T07:04:23.586Z,16
2022-08-14T07:05:29.661Z,15.6
2022-08-14T07:06:35.761Z,16.7
2022-08-14T07:07:41.853Z,14.5
2022-08-14T07:08:47.957Z,15.6
2022-08-14T07:09:54.025Z,16.29
2022-08-14T07:11:00.088Z,15
2022-08-14T07:12:06.154Z,14.6
2022-08-14T07:13:12.227Z,14.4
2022-08-14T07:14:18.296Z,14.5
2022-08-14T07:15:24.350Z,14.3
2022-08-14T07:16:30.437Z,14.3
2022-08-14T07:17:36.464Z,14.4
2022-08-14T07:18:42.664Z,13.9
2022-08-14T07:19:48.852Z,14.3
2022-08-14T07:20:55.028Z,14.1
2022-08-14T07:22:01.205Z,14.4
2022-08-14T07:23:07.394Z,13.8
2022-08-14T07:24:13.589Z,14.1
2022-08-14T07:25:19.760Z,14.7
2022-08-14T07:26:25.952Z,14.3
2022-08-14T07:27:32.130Z,15.3
2022-08-14T07:28:38.320Z,14.9
2022-08-14T07:29:44.521Z,15
2022-08-14T07:30:50.704Z,15.7
2022-08-14T07:31:56.891Z,15.2
2022-08-14T07:33:03.347Z,14.8
2022-08-14T07:34:08.648Z,14.2
2022-08-14T07:35:14.634Z,15.7
2022-08-14T07:36:20.638Z,15.9
2022-08-14T07:37:26.646Z,15.1
2022-08-14T07:38:32.615Z,14.9
2022-08-14T07:39:38.596Z,14.9
2022-08-14T07:40:44.583Z,14.3
2022-08-14T07:41:50.588Z,15.6
2022-08-14T07:42:56.569Z,14.8
2022-08-14T07:44:02.548Z,13.3
2022-08-14T07:45:08.532Z,13.9
2022-08-14T07:46:14.521Z,14.2
2022-08-14T07:47:20.490Z,14.3
2022-08-14T07:48:26.467Z,14.8
2022-08-14T07:49:32.450Z,14.5
2022-08-14T07:50:38.450Z,14.5
2022-08-14T07:51:44.389Z,14.6
2022-08-14T07:52:50.370Z,14.5
2022-08-14T07:53:56.339Z,13.4
2022-08-14T07:55:02.296Z,14.3
2022-08-14T07:56:08.275Z,14.9
2022-08-14T07:57:14.253Z,14.3
2022-08-14T07:58:20.233Z,14.2
2022-08-14T07:59:26.209Z,14.1
2022-08-14T08:00:32.198Z,14.2
2022-08-14T08:01:38.241Z,14.4
2022-08-14T08:02:44.300Z,13.7
2022-08-14T08:03:50.368Z,14.8
2022-08-14T08:04:56.425Z,15.2
2022-08-14T08:06:02.494Z,14.6
2022-08-14T08:07:08.553Z,15
2022-08-14T08:08:14.622Z,15.3
2022-08-14T08:09:20.682Z,14.9
2022-08-14T08:10:26.748Z,14.4
2022-08-14T08:11:32.815Z,14.1
2022-08-14T08:12:38.908Z,13.5
2022-08-14T08:13:44.973Z,14.2
2022-08-14T08:14:51.026Z,13.8
2022-08-14T08:15:57.210Z,14
2022-08-14T08:17:03.399Z,13.1
2022-08-14T08:18:09.587Z,15.4
2022-08-14T08:19:15.777Z,14.1
2022-08-14T08:20:21.969Z,14.3
2022-08-14T08:21:28.161Z,15
2022-08-14T08:22:34.326Z,15.1
2022-08-14T08:23:40.523Z,14.1
2022-08-14T08:24:46.695Z,13.8
2022-08-14T08:25:52.866Z,16.6
2022-08-14T08:26:59.040Z,14.5
2022-08-14T08:28:05.214Z,14.5
2022-08-14T08:29:11.374Z,16.29
2022-08-14T08:31:46.161Z,15.1
2022-08-14T08:32:51.457Z,15.8
2022-08-14T08:33:57.414Z,13.3
2022-08-14T08:35:03.368Z,13.9
2022-08-14T08:36:09.322Z,13.9
2022-08-14T08:37:15.295Z,14.4
2022-08-14T08:38:21.221Z,14
2022-08-14T08:39:27.169Z,14.9
2022-08-14T08:40:33.106Z,14.8
2022-08-14T08:41:39.028Z,14.1
2022-08-14T08:42:44.996Z,14.3
2022-08-14T08:43:50.889Z,15.7
2022-08-14T08:44:56.858Z,13.8
2022-08-14T08:46:02.754Z,14
2022-08-14T08:47:08.667Z,14.3
2022-08-14T08:48:14.591Z,14.5
2022-08-14T08:49:20.523Z,14.4
2022-08-14T08:50:26.422Z,13.8
2022-08-14T08:51:32.337Z,12.9
2022-08-14T08:52:38.253Z,13.6
2022-08-14T08:53:44.197Z,13.3
2022-08-14T08:54:50.087Z,14.7
2022-08-14T08:55:55.986Z,14.3
2022-08-14T08:57:01.901Z,13.9
2022-08-14T08:58:07.796Z,13.3
2022-08-14T08:59:13.700Z,12.5
2022-08-14T09:00:19.692Z,12.1
2022-08-14T09:01:25.683Z,12.5
2022-08-14T09:02:31.677Z,11.7
2022-08-14T09:03:37.658Z,12
2022-08-14T09:04:43.631Z,11.1
2022-08-14T09:05:49.601Z,12.7
2022-08-14T09:06:55.594Z,13.1
2022-08-14T09:08:01.587Z,14.1
2022-08-14T09:09:07.554Z,12.8
2022-08-14T09:10:13.547Z,13.3
2022-08-14T09:11:19.531Z,13.7
2022-08-14T09:12:25.512Z,13.1
2022-08-14T09:13:31.503Z,14
2022-08-14T09:14:37.624Z,14.6
2022-08-14T09:15:43.760Z,16.29
2022-08-14T09:16:49.875Z,16.2
2022-08-14T09:17:55.982Z,16.1
2022-08-14T09:19:02.115Z,16.1
2022-08-14T09:20:08.251Z,16.29
2022-08-14T09:21:14.374Z,17
2022-08-14T09:22:20.512Z,16.4
2022-08-14T09:23:26.641Z,16.4
2022-08-14T09:24:32.762Z,15.4
2022-08-14T09:25:38.934Z,15.3
2022-08-14T09:26:45.037Z,15.6
2022-08-14T09:27:51.209Z,15.6
2022-08-14T09:30:47.939Z,15.6
2022-08-14T09:31:53.212Z,15.4
2022-08-14T09:32:59.133Z,15.8
2022-08-14T09:34:05.083Z,14.5
2022-08-14T09:35:11.045Z,13.8
2022-08-14T09:36:17.002Z,12.6
2022-08-14T09:37:22.942Z,12.9
2022-08-14T09:38:28.880Z,12.8
2022-08-14T09:39:34.843Z,13.1
2022-08-14T09:40:40.795Z,13.2
2022-08-14T09:41:46.727Z,12.4
2022-08-14T09:42:52.693Z,11.6
2022-08-14T09:43:58.641Z,11.9
2022-08-14T09:45:04.581Z,12.7
2022-08-14T09:46:10.544Z,11.1
2022-08-14T09:47:16.469Z,12
2022-08-14T09:48:22.437Z,10.8
2022-08-14T09:49:28.377Z,10.2
2022-08-14T09:50:34.375Z,10.5
2022-08-14T09:51:40.271Z,9.8
2022-08-14T09:52:46.243Z,10.2
2022-08-14T09:53:52.173Z,11.3
2022-08-14T09:54:58.123Z,9.8
2022-08-14T09:56:04.078Z,10.5
2022-08-14T09:57:10.012Z,9.7
2022-08-14T09:58:15.958Z,9
2022-08-14T09:59:21.990Z,10
2022-08-14T10:00:28.017Z,9.5
2022-08-14T10:01:34.050Z,9.5
2022-08-14T10:02:40.112Z,10.5
2022-08-14T10:03:46.119Z,10.2
2022-08-14T10:04:52.151Z,10.7
2022-08-14T10:05:58.183Z,10.7
2022-08-14T10:07:04.218Z,9.3
2022-08-14T10:08:10.254Z,10.3
2022-08-14T10:09:16.286Z,9.8
2022-08-14T10:10:22.319Z,8.89
2022-08-14T10:11:28.379Z,9.6
2022-08-14T10:12:34.404Z,8.8
2022-08-14T10:13:40.589Z,9
2022-08-14T10:14:46.781Z,8.89
2022-08-14T10:15:52.924Z,8.7
2022-08-14T10:16:59.093Z,8.8
2022-08-14T10:18:05.258Z,8.8
2022-08-14T10:19:11.421Z,9.2
2022-08-14T10:20:17.576Z,11
2022-08-14T10:21:23.750Z,9.8
2022-08-14T10:22:29.914Z,9.7
2022-08-14T10:23:36.067Z,9.89
2022-08-14T10:24:42.282Z,9.89
2022-08-14T10:25:48.394Z,9.1
2022-08-14T10:26:54.574Z,9.7
2022-08-14T10:29:29.339Z,9.7
2022-08-14T10:30:34.627Z,9.39
2022-08-14T10:31:40.587Z,9.7
2022-08-14T10:32:46.560Z,10.2
2022-08-14T10:33:52.516Z,10.2
2022-08-14T10:34:58.497Z,11.3
2022-08-14T10:36:04.456Z,10.4
2022-08-14T10:37:10.410Z,9.39
2022-08-14T10:38:16.352Z,10.2
2022-08-14T10:39:22.336Z,11.2
2022-08-14T10:40:28.310Z,11.1
2022-08-14T10:41:34.251Z,10.4
2022-08-14T10:42:40.227Z,11.2
2022-08-14T10:43:46.177Z,10.4
2022-08-14T10:44:52.170Z,11.2
2022-08-14T10:45:58.130Z,9.89
2022-08-14T10:47:04.073Z,10.5
2022-08-14T10:48:10.048Z,10.2
2022-08-14T10:49:16.017Z,11.1
2022-08-14T10:50:22.006Z,10.1
2022-08-14T10:51:27.968Z,10.1
2022-08-14T10:52:33.926Z,9.39
2022-08-14T10:53:39.896Z,9.89
2022-08-14T10:54:45.859Z,9.8
2022-08-14T10:55:51.852Z,10.6
2022-08-14T10:56:57.815Z,10.2
2022-08-14T10:58:03.815Z,10.3
2022-08-14T10:59:09.840Z,10.5
2022-08-14T11:00:15.877Z,9.7
2022-08-14T11:01:21.941Z,9.7
2022-08-14T11:02:27.950Z,9.6
2022-08-14T11:03:33.998Z,9.39
2022-08-14T11:04:40.044Z,11.6
2022-08-14T11:05:46.071Z,9.8
2022-08-14T11:06:52.103Z,9.3
2022-08-14T11:07:58.128Z,9.7
2022-08-14T11:09:04.183Z,10.7
2022-08-14T11:10:10.186Z,10.6
2022-08-14T11:11:16.220Z,10
2022-08-14T11:12:22.384Z,10.2
2022-08-14T11:13:28.547Z,11.2
2022-08-14T11:14:34.707Z,9.89
2022-08-14T11:15:40.868Z,10.3
2022-08-14T11:16:47.028Z,10.4
2022-08-14T11:17:53.213Z,10.6
2022-08-14T11:18:59.343Z,10.5
2022-08-14T11:20:05.497Z,10.3
2022-08-14T11:21:11.645Z,10.7
2022-08-14T11:22:17.809Z,9.8
2022-08-14T11:23:23.969Z,9.89
2022-08-14T11:24:30.108Z,10.2
2022-08-14T11:25:36.241Z,10.3
2022-08-14T11:26:42.712Z,9.1
2022-08-14T11:27:47.973Z,8.6
2022-08-14T11:28:53.909Z,9.39
2022-08-14T11:29:59.857Z,8.8
2022-08-14T11:31:05.779Z,9.5
2022-08-14T11:32:11.732Z,8.6
2022-08-14T11:33:17.704Z,8.2
2022-08-14T11:34:23.635Z,8.5
2022-08-14T11:35:29.593Z,9
2022-08-14T11:36:35.556Z,9.2
2022-08-14T11:37:41.510Z,9
2022-08-14T11:38:47.495Z,9.8
2022-08-14T11:39:53.446Z,9.3
2022-08-14T11:40:59.402Z,8.89
2022-08-14T11:42:05.374Z,9.2
2022-08-14T11:43:11.341Z,8.5
2022-08-14T11:44:17.319Z,8.7
2022-08-14T11:45:23.299Z,9.2
2022-08-14T11:46:29.268Z,9.3
2022-08-14T11:47:35.248Z,9.6
2022-08-14T11:48:41.217Z,10.6
2022-08-14T11:49:47.205Z,8.8
2022-08-14T11:50:53.183Z,9.3
2022-08-14T11:51:59.175Z,9.39
2022-08-14T11:53:05.134Z,10.4
2022-08-14T11:54:11.112Z,9.8
2022-08-14T11:55:17.182Z,9.89
2022-08-14T11:56:23.251Z,9.8
2022-08-14T11:57:29.304Z,8.8
2022-08-14T11:58:35.361Z,10
2022-08-14T11:59:41.420Z,9.6
2022-08-14T12:00:47.479Z,10.6
2022-08-14T12:01:53.562Z,10.2
2022-08-14T12:02:59.587Z,10.1
2022-08-14T12:04:05.658Z,9.6
2022-08-14T12:05:11.732Z,9.7
2022-08-14T12:06:17.758Z,10.3
2022-08-14T12:07:23.807Z,9.5
2022-08-14T12:08:29.871Z,9.7
2022-08-14T12:09:36.054Z,10.4
2022-08-14T12:10:42.220Z,9.7
2022-08-14T12:11:48.417Z,9.7
2022-08-14T12:12:54.601Z,9.1
2022-08-14T12:14:00.745Z,10.1
2022-08-14T12:15:06.902Z,9.8
2022-08-14T12:16:13.076Z,10.5
2022-08-14T12:17:19.237Z,9.5
2022-08-14T12:18:25.411Z,9.5
2022-08-14T12:19:31.594Z,9.1
2022-08-14T12:20:37.749Z,9.6
2022-08-14T12:21:43.910Z,8.89
2022-08-14T12:22:50.072Z,9
2022-08-14T12:25:24.837Z,10
2022-08-14T12:26:30.118Z,8.8
2022-08-14T12:27:36.077Z,9.8
2022-08-14T12:28:42.037Z,9.39
2022-08-14T12:29:48.019Z,9.5
2022-08-14T12:30:53.948Z,9
2022-08-14T12:31:59.898Z,9.5
2022-08-14T12:33:05.859Z,9.5
2022-08-14T12:34:11.827Z,9.2
2022-08-14T12:35:17.779Z,9.5
2022-08-14T12:36:23.744Z,9.39
2022-08-14T12:37:29.691Z,9
2022-08-14T12:38:35.628Z,9.89
2022-08-14T12:39:41.574Z,8.6
2022-08-14T12:40:47.533Z,9
2022-08-14T12:41:53.485Z,9.2
2022-08-14T12:42:59.433Z,9.7
2022-08-14T12:44:05.410Z,9.2
2022-08-14T12:45:11.348Z,9.39
2022-08-14T12:46:17.301Z,9
2022-08-14T12:47:23.232Z,9.2
2022-08-14T12:48:29.190Z,9.3
2022-08-14T12:49:35.151Z,8.89
2022-08-14T12:50:41.096Z,9.5
2022-08-14T12:51:47.042Z,8.89
2022-08-14T12:52:53.236Z,8.89
2022-08-14T12:53:59.008Z,9.1
2022-08-14T12:55:05.050Z,9.2
2022-08-14T12:56:11.050Z,9.3
2022-08-14T12:57:17.090Z,9.8
2022-08-14T12:58:23.118Z,9.6
2022-08-14T12:59:29.132Z,9.8
2022-08-14T13:00:35.152Z,9.39
2022-08-14T13:01:41.188Z,9.7
2022-08-14T13:02:47.224Z,9.5
2022-08-14T13:03:53.234Z,10.1
2022-08-14T13:04:59.264Z,9.2
2022-08-14T13:06:05.298Z,10.2
2022-08-14T13:07:11.341Z,8.89
2022-08-14T13:08:17.476Z,9.8
2022-08-14T13:09:23.670Z,9.6
2022-08-14T13:10:29.787Z,9.7
2022-08-14T13:11:35.948Z,9.2
2022-08-14T13:12:42.107Z,9.39
2022-08-14T13:13:48.252Z,8.8
2022-08-14T13:14:54.406Z,8.8
2022-08-14T13:16:00.568Z,8.89
2022-08-14T13:17:06.716Z,9.3
2022-08-14T13:18:12.885Z,9.3
2022-08-14T13:19:19.049Z,9.3
2022-08-14T13:20:25.208Z,8.89
2022-08-14T13:21:31.353Z,8.89
2022-08-14T13:22:37.747Z,8.6
2022-08-14T13:23:43.045Z,8.8
2022-08-14T13:24:49.000Z,10.1
2022-08-14T13:25:54.948Z,9.1
2022-08-14T13:27:00.915Z,8.8
2022-08-14T13:28:06.897Z,9.2
2022-08-14T13:29:12.836Z,10.3
2022-08-14T13:30:18.802Z,9.1
2022-08-14T13:31:24.758Z,9.1
2022-08-14T13:32:30.756Z,8.7
2022-08-14T13:33:36.683Z,9.39
2022-08-14T13:34:42.647Z,10
2022-08-14T13:35:48.609Z,8.7
2022-08-14T13:36:54.581Z,9.8
2022-08-14T13:38:00.555Z,9.8
2022-08-14T13:39:06.522Z,9.39
2022-08-14T13:40:12.484Z,9.2
2022-08-14T13:41:18.453Z,9.5
2022-08-14T13:42:24.397Z,8.89
2022-08-14T13:43:30.348Z,8.7
2022-08-14T13:44:36.323Z,8.8
2022-08-14T13:45:42.281Z,8.7
2022-08-14T13:46:48.230Z,8.89
2022-08-14T13:47:54.191Z,8.7
2022-08-14T13:49:00.164Z,9.89
2022-08-14T13:50:06.121Z,9
2022-08-14T13:51:12.142Z,9.39
2022-08-14T13:52:18.251Z,8.7
2022-08-14T13:53:24.225Z,10.4
2022-08-14T13:54:30.269Z,9.89
2022-08-14T13:55:36.302Z,9.2
2022-08-14T13:56:42.362Z,8.3
2022-08-14T13:57:48.366Z,8.5
2022-08-14T13:58:54.428Z,8.89
2022-08-14T14:00:00.432Z,8.8
2022-08-14T14:01:06.484Z,8.39
2022-08-14T14:02:12.514Z,9.2
2022-08-14T14:03:18.536Z,9.3
2022-08-14T14:04:24.558Z,8.89
2022-08-14T14:05:30.709Z,9.3
2022-08-14T14:06:36.858Z,8.8
2022-08-14T14:07:43.005Z,9
2022-08-14T14:08:49.170Z,8.7
2022-08-14T14:09:55.299Z,9
2022-08-14T14:11:01.447Z,10.1
2022-08-14T14:12:07.592Z,9.39
2022-08-14T14:13:13.733Z,9.89
2022-08-14T14:14:19.879Z,10.2
2022-08-14T14:15:26.021Z,10.2
2022-08-14T14:16:32.210Z,9
2022-08-14T14:17:38.311Z,9.39
2022-08-14T14:18:44.446Z,8.5
2022-08-14T14:21:19.164Z,8.7
2022-08-14T14:22:24.447Z,8.5
2022-08-14T14:23:30.401Z,9
2022-08-14T14:24:36.319Z,9.1
2022-08-14T14:25:42.271Z,9.39
2022-08-14T14:26:48.225Z,9.1
2022-08-14T14:27:54.185Z,8.8
2022-08-14T14:29:00.124Z,9
2022-08-14T14:30:06.060Z,9.6
2022-08-14T14:31:12.043Z,9.8
2022-08-14T14:32:17.973Z,9.1
2022-08-14T14:33:23.934Z,8.6
2022-08-14T14:34:29.920Z,9.7
2022-08-14T14:35:35.857Z,9.1
2022-08-14T14:36:41.833Z,9.5
2022-08-14T14:37:47.784Z,9.1
2022-08-14T14:38:53.756Z,10.2
2022-08-14T14:39:59.712Z,9.6
2022-08-14T14:41:05.682Z,9.2
2022-08-14T14:42:11.650Z,8.89
2022-08-14T14:43:17.641Z,9.7
2022-08-14T14:44:23.608Z,10.7
2022-08-14T14:45:29.578Z,9.2
2022-08-14T14:46:35.548Z,9.39
2022-08-14T14:47:41.529Z,9.6
2022-08-14T14:48:47.504Z,9.89
2022-08-14T14:49:53.553Z,9.2
2022-08-14T14:50:59.598Z,9.2
2022-08-14T14:52:05.687Z,10
2022-08-14T14:53:11.706Z,11.1
2022-08-14T14:54:17.782Z,9.1
2022-08-14T14:55:23.862Z,9.2
2022-08-14T14:56:29.893Z,9.7
2022-08-14T14:57:35.988Z,10